Home   Weather   Germany   Wetter (Ruhr)   Past weeks
Flag for Germany

Past Weather in Wetter (Ruhr), North Rhine-Westphalia, Germany — Yesterday and Last 2 Weeks

Currently: 59 °F. Passing clouds. (Weather station: Dortmund / Wickede, Germany). See more current weather

Past Weather in Wetter (Ruhr) — Graph

°F

Wetter (Ruhr) Temperature Yesterday

Maximum temperature yesterday: 70 °F (at 6:20 pm)
Minimum temperature yesterday: 57 °F (at 1:50 am)
Average temperature yesterday: 61 °F

High & Low Weather Summary for the Past Weeks

 TemperatureHumidityPressure
High72 °F (Jun 18, 10:20 am)100% (Jun 18, 4:50 pm)30.18 "Hg (Jun 18, 4:50 pm)
Low45 °F (Jun 6, 2:50 am)35% (Jun 7, 2:50 pm)29.53 "Hg (Jun 15, 4:50 am)
Average58 °F70%29.90 "Hg
* Reported Jun 5 7:20 am — Jun 20 7:20 am, Wetter (Ruhr). Weather by CustomWeather, © 2024

Note: Actual official high and low records may vary slightly from our data, if they occured in-between our weather recording intervals... More about our weather records

Wetter (Ruhr) Weather History for the Previous 24 Hours

Scroll right to see more
 ConditionsComfort  
Time TempWeatherWind HumidityBarometerVisibility
7:20 am
Thu, Jun 20
55 °FPassing clouds.3 mph88%30.15 "HgN/A
6:50 am54 °FPassing clouds.3 mph94%30.15 "HgN/A
6:20 am52 °FSunny.2 mph94%30.18 "Hg10 mi
5:50 am50 °FPassing clouds.3 mph100%30.18 "HgN/A
5:20 am52 °FSunny.2 mph94%30.18 "Hg10 mi
4:50 am50 °FClear.2 mph94%30.15 "HgN/A
4:20 am52 °FClear.2 mph94%30.15 "HgN/A
3:50 am54 °FClear.5 mph88%30.18 "HgN/A
3:20 am54 °FClear.3 mph88%30.15 "HgN/A
2:50 am54 °FClear.2 mph88%30.18 "HgN/A
2:20 am54 °FClear.2 mph88%30.18 "HgN/A
1:50 am55 °FClear.5 mph82%30.18 "HgN/A
1:20 am55 °FClear.6 mph82%30.15 "HgN/A
12:50 am55 °FClear.2 mph88%30.18 "HgN/A
12:20 am55 °FClear.2 mph82%30.15 "HgN/A
11:50 pm
Wed, Jun 19
57 °FPassing clouds.3 mph82%30.15 "HgN/A
11:20 pm59 °FPassing clouds.3 mph77%30.15 "HgN/A
10:50 pm59 °FClear.2 mph77%30.15 "Hg10 mi
10:20 pm61 °FClear.3 mph72%30.15 "Hg10 mi
9:50 pm63 °FPassing clouds.3 mph68%30.15 "HgN/A
9:20 pm63 °FPassing clouds.3 mph68%30.12 "HgN/A
8:50 pm66 °FSunny.6 mph60%30.12 "Hg10 mi
8:20 pm66 °FPassing clouds.8 mph56%30.12 "HgN/A
7:50 pm68 °FPassing clouds.7 mph53%30.12 "HgN/A
7:20 pm68 °FSunny.8 mph56%30.09 "Hg10 mi
6:50 pm66 °FSunny.7 mph60%30.09 "Hg10 mi
6:20 pm70 °FPassing clouds.8 mph53%30.09 "HgN/A
5:50 pm68 °FScattered clouds.8 mph53%30.09 "HgN/A
5:20 pm68 °FPassing clouds.7 mph53%30.09 "HgN/A
4:50 pm68 °FPassing clouds.7 mph56%30.09 "HgN/A
4:20 pm68 °FScattered clouds.9 mph60%30.09 "HgN/A
3:50 pm68 °FPassing clouds.7 mph60%30.09 "HgN/A
2:50 pm64 °FPassing clouds.6 mph64%30.07 "HgN/A
2:20 pm64 °FScattered clouds.6 mph64%30.07 "HgN/A
1:20 pm63 °FScattered clouds.6 mph73%30.07 "HgN/A
12:50 pm61 °FBroken clouds.7 mph77%30.07 "HgN/A
12:20 pm61 °FMostly cloudy.7 mph83%30.07 "HgN/A
11:50 am61 °FMostly cloudy.8 mph83%30.07 "HgN/A
11:20 am61 °FPartly sunny.9 mph83%30.04 "HgN/A
10:50 am61 °FBroken clouds.8 mph83%30.04 "HgN/A
10:20 am61 °FBroken clouds.8 mph83%30.01 "HgN/A
9:50 am59 °FBroken clouds.8 mph88%30.01 "HgN/A
9:20 am59 °FBroken clouds.8 mph94%30.01 "HgN/A
8:50 am59 °FMore clouds than sun.7 mph94%30.01 "Hg4 mi
8:20 am59 °FCloudy.6 mph94%30.01 "Hg4 mi
Weather by CustomWeather, © 2024

See weather overview